sensor_id;sensor_type;location;lat;lon;timestamp;P1;durP1;ratioP1;P2;durP2;ratioP2
34142;SDS011;20419;10.658;106.724;2023-04-03T00:01:26;4.07;;;3.03;;
34142;SDS011;20419;10.658;106.724;2023-04-03T00:03:52;4.65;;;3.20;;
34142;SDS011;20419;10.658;106.724;2023-04-03T00:06:20;5.60;;;3.50;;
34142;SDS011;20419;10.658;106.724;2023-04-03T00:08:46;4.30;;;2.83;;
34142;SDS011;20419;10.658;106.724;2023-04-03T00:11:13;5.03;;;2.95;;
34142;SDS011;20419;10.658;106.724;2023-04-03T00:13:40;7.22;;;3.10;;
34142;SDS011;20419;10.658;106.724;2023-04-03T00:16:08;6.95;;;2.97;;
34142;SDS011;20419;10.658;106.724;2023-04-03T00:18:36;4.55;;;2.85;;
34142;SDS011;20419;10.658;106.724;2023-04-03T00:21:03;7.18;;;3.20;;
34142;SDS011;20419;10.658;106.724;2023-04-03T00:23:30;5.05;;;2.90;;
34142;SDS011;20419;10.658;106.724;2023-04-03T00:25:56;5.82;;;3.25;;
34142;SDS011;20419;10.658;106.724;2023-04-03T00:28:23;5.30;;;3.17;;
34142;SDS011;20419;10.658;106.724;2023-04-03T00:30:51;6.95;;;3.40;;
34142;SDS011;20419;10.658;106.724;2023-04-03T00:33:18;3.92;;;3.40;;
34142;SDS011;20419;10.658;106.724;2023-04-03T00:35:47;4.90;;;3.20;;
34142;SDS011;20419;10.658;106.724;2023-04-03T00:38:14;4.93;;;3.20;;
34142;SDS011;20419;10.658;106.724;2023-04-03T00:40:42;5.28;;;2.97;;
34142;SDS011;20419;10.658;106.724;2023-04-03T00:43:17;4.57;;;3.17;;
34142;SDS011;20419;10.658;106.724;2023-04-03T00:45:45;6.68;;;3.72;;
34142;SDS011;20419;10.658;106.724;2023-04-03T00:50:40;5.10;;;3.20;;
34142;SDS011;20419;10.658;106.724;2023-04-03T00:53:08;6.68;;;3.53;;
34142;SDS011;20419;10.658;106.724;2023-04-03T00:55:37;5.75;;;3.20;;
34142;SDS011;20419;10.658;106.724;2023-04-03T00:58:04;5.97;;;3.80;;
34142;SDS011;20419;10.658;106.724;2023-04-03T01:00:32;4.70;;;3.45;;
34142;SDS011;20419;10.658;106.724;2023-04-03T01:02:59;4.45;;;3.25;;
34142;SDS011;20419;10.658;106.724;2023-04-03T01:05:26;5.57;;;3.67;;
34142;SDS011;20419;10.658;106.724;2023-04-03T01:07:53;4.57;;;3.38;;
34142;SDS011;20419;10.658;106.724;2023-04-03T01:10:20;6.85;;;3.45;;
34142;SDS011;20419;10.658;106.724;2023-04-03T01:12:48;6.28;;;3.35;;
34142;SDS011;20419;10.658;106.724;2023-04-03T01:15:17;4.60;;;3.22;;
34142;SDS011;20419;10.658;106.724;2023-04-03T01:17:46;5.13;;;3.25;;
34142;SDS011;20419;10.658;106.724;2023-04-03T01:25:28;4.30;;;3.25;;
34142;SDS011;20419;10.658;106.724;2023-04-03T01:27:54;4.72;;;3.42;;
34142;SDS011;20419;10.658;106.724;2023-04-03T01:30:24;5.35;;;3.22;;
34142;SDS011;20419;10.658;106.724;2023-04-03T01:32:52;4.97;;;3.58;;
34142;SDS011;20419;10.658;106.724;2023-04-03T01:35:18;5.22;;;3.40;;
34142;SDS011;20419;10.658;106.724;2023-04-03T01:37:45;5.07;;;3.45;;
34142;SDS011;20419;10.658;106.724;2023-04-03T01:40:12;4.85;;;2.90;;
34142;SDS011;20419;10.658;106.724;2023-04-03T01:42:39;4.60;;;3.13;;
34142;SDS011;20419;10.658;106.724;2023-04-03T01:45:05;4.55;;;3.20;;
34142;SDS011;20419;10.658;106.724;2023-04-03T01:47:32;4.72;;;3.42;;
34142;SDS011;20419;10.658;106.724;2023-04-03T01:49:59;5.32;;;3.17;;
34142;SDS011;20419;10.658;106.724;2023-04-03T01:52:26;4.60;;;3.13;;
34142;SDS011;20419;10.658;106.724;2023-04-03T01:54:52;5.45;;;3.35;;
34142;SDS011;20419;10.658;106.724;2023-04-03T01:57:19;5.13;;;3.30;;
34142;SDS011;20419;10.658;106.724;2023-04-03T01:59:46;4.57;;;3.13;;
34142;SDS011;20419;10.658;106.724;2023-04-03T02:02:13;4.95;;;3.70;;
34142;SDS011;20419;10.658;106.724;2023-04-03T02:04:40;4.38;;;3.45;;
34142;SDS011;20419;10.658;106.724;2023-04-03T02:07:07;4.85;;;3.33;;
34142;SDS011;20419;10.658;106.724;2023-04-03T02:09:34;4.78;;;3.15;;
34142;SDS011;20419;10.658;106.724;2023-04-03T02:12:00;4.30;;;3.20;;
34142;SDS011;20419;10.658;106.724;2023-04-03T02:14:27;4.63;;;2.80;;
34142;SDS011;20419;10.658;106.724;2023-04-03T02:16:54;4.38;;;3.28;;
34142;SDS011;20419;10.658;106.724;2023-04-03T02:19:21;4.82;;;3.00;;
34142;SDS011;20419;10.658;106.724;2023-04-03T02:21:48;4.40;;;3.22;;
34142;SDS011;20419;10.658;106.724;2023-04-03T02:24:15;4.38;;;3.17;;
34142;SDS011;20419;10.658;106.724;2023-04-03T02:26:41;5.53;;;3.50;;
34142;SDS011;20419;10.658;106.724;2023-04-03T02:29:08;5.50;;;3.30;;
34142;SDS011;20419;10.658;106.724;2023-04-03T02:31:35;5.20;;;3.00;;
34142;SDS011;20419;10.658;106.724;2023-04-03T02:34:02;5.60;;;2.92;;
34142;SDS011;20419;10.658;106.724;2023-04-03T02:36:28;4.95;;;3.00;;
34142;SDS011;20419;10.658;106.724;2023-04-03T02:38:55;4.35;;;2.92;;
34142;SDS011;20419;10.658;106.724;2023-04-03T02:41:22;4.63;;;3.13;;
34142;SDS011;20419;10.658;106.724;2023-04-03T02:43:50;3.97;;;3.08;;
34142;SDS011;20419;10.658;106.724;2023-04-03T02:46:17;4.50;;;3.05;;
34142;SDS011;20419;10.658;106.724;2023-04-03T02:48:44;4.18;;;2.83;;
34142;SDS011;20419;10.658;106.724;2023-04-03T02:51:10;4.47;;;2.88;;
34142;SDS011;20419;10.658;106.724;2023-04-03T02:53:37;4.85;;;3.03;;
34142;SDS011;20419;10.658;106.724;2023-04-03T02:56:06;4.40;;;3.30;;
34142;SDS011;20419;10.658;106.724;2023-04-03T02:58:33;4.68;;;3.17;;
34142;SDS011;20419;10.658;106.724;2023-04-03T03:00:59;5.07;;;3.53;;
34142;SDS011;20419;10.658;106.724;2023-04-03T03:03:26;5.10;;;3.17;;
34142;SDS011;20419;10.658;106.724;2023-04-03T03:08:49;4.05;;;2.95;;
34142;SDS011;20419;10.658;106.724;2023-04-03T03:11:16;4.65;;;3.15;;
34142;SDS011;20419;10.658;106.724;2023-04-03T03:13:43;3.90;;;3.03;;
34142;SDS011;20419;10.658;106.724;2023-04-03T03:16:10;4.22;;;3.08;;
34142;SDS011;20419;10.658;106.724;2023-04-03T03:18:37;4.20;;;2.60;;
34142;SDS011;20419;10.658;106.724;2023-04-03T03:21:04;4.85;;;3.13;;
34142;SDS011;20419;10.658;106.724;2023-04-03T03:23:31;4.22;;;3.10;;
34142;SDS011;20419;10.658;106.724;2023-04-03T03:25:59;4.57;;;2.83;;
34142;SDS011;20419;10.658;106.724;2023-04-03T03:28:27;5.37;;;3.17;;
34142;SDS011;20419;10.658;106.724;2023-04-03T03:30:53;4.43;;;2.78;;
34142;SDS011;20419;10.658;106.724;2023-04-03T03:33:20;6.32;;;3.35;;
34142;SDS011;20419;10.658;106.724;2023-04-03T03:35:47;4.70;;;3.10;;
34142;SDS011;20419;10.658;106.724;2023-04-03T03:38:14;4.20;;;2.55;;
34142;SDS011;20419;10.658;106.724;2023-04-03T03:40:40;3.63;;;2.63;;
34142;SDS011;20419;10.658;106.724;2023-04-03T03:43:07;4.72;;;2.92;;
34142;SDS011;20419;10.658;106.724;2023-04-03T03:45:34;3.75;;;2.58;;
34142;SDS011;20419;10.658;106.724;2023-04-03T03:48:02;4.05;;;3.03;;
34142;SDS011;20419;10.658;106.724;2023-04-03T03:50:29;4.28;;;3.25;;
34142;SDS011;20419;10.658;106.724;2023-04-03T03:52:56;4.00;;;2.80;;
34142;SDS011;20419;10.658;106.724;2023-04-03T03:55:23;5.15;;;2.95;;
34142;SDS011;20419;10.658;106.724;2023-04-03T03:57:50;3.67;;;2.63;;
34142;SDS011;20419;10.658;106.724;2023-04-03T04:00:17;4.00;;;2.65;;
34142;SDS011;20419;10.658;106.724;2023-04-03T04:02:44;3.92;;;3.03;;
34142;SDS011;20419;10.658;106.724;2023-04-03T04:05:11;4.22;;;3.05;;
34142;SDS011;20419;10.658;106.724;2023-04-03T04:07:37;3.80;;;2.50;;
34142;SDS011;20419;10.658;106.724;2023-04-03T04:10:04;4.85;;;2.75;;
34142;SDS011;20419;10.658;106.724;2023-04-03T04:12:31;4.40;;;3.03;;
34142;SDS011;20419;10.658;106.724;2023-04-03T04:14:58;4.57;;;2.90;;
34142;SDS011;20419;10.658;106.724;2023-04-03T04:17:24;4.22;;;3.10;;
34142;SDS011;20419;10.658;106.724;2023-04-03T04:19:51;3.80;;;2.70;;
34142;SDS011;20419;10.658;106.724;2023-04-03T04:22:18;3.75;;;2.67;;
34142;SDS011;20419;10.658;106.724;2023-04-03T04:24:45;5.10;;;2.80;;
34142;SDS011;20419;10.658;106.724;2023-04-03T04:27:11;4.18;;;3.08;;
34142;SDS011;20419;10.658;106.724;2023-04-03T04:29:38;3.63;;;2.72;;
34142;SDS011;20419;10.658;106.724;2023-04-03T04:32:05;4.00;;;2.90;;
34142;SDS011;20419;10.658;106.724;2023-04-03T04:34:31;3.88;;;2.75;;
34142;SDS011;20419;10.658;106.724;2023-04-03T04:36:58;4.45;;;3.15;;
34142;SDS011;20419;10.658;106.724;2023-04-03T04:39:25;4.20;;;3.00;;
34142;SDS011;20419;10.658;106.724;2023-04-03T04:41:51;4.75;;;3.25;;
34142;SDS011;20419;10.658;106.724;2023-04-03T04:44:18;4.07;;;3.08;;
34142;SDS011;20419;10.658;106.724;2023-04-03T04:46:45;3.70;;;2.53;;
34142;SDS011;20419;10.658;106.724;2023-04-03T04:49:12;4.18;;;3.10;;
34142;SDS011;20419;10.658;106.724;2023-04-03T04:51:39;3.60;;;2.60;;
34142;SDS011;20419;10.658;106.724;2023-04-03T04:54:05;4.40;;;2.97;;
34142;SDS011;20419;10.658;106.724;2023-04-03T04:56:32;4.15;;;3.00;;
34142;SDS011;20419;10.658;106.724;2023-04-03T04:58:59;3.90;;;2.67;;
34142;SDS011;20419;10.658;106.724;2023-04-03T05:01:26;3.75;;;2.70;;
34142;SDS011;20419;10.658;106.724;2023-04-03T05:03:53;5.63;;;3.20;;
34142;SDS011;20419;10.658;106.724;2023-04-03T05:06:19;4.05;;;2.72;;
34142;SDS011;20419;10.658;106.724;2023-04-03T05:08:46;4.53;;;2.97;;
34142;SDS011;20419;10.658;106.724;2023-04-03T05:11:13;4.10;;;2.90;;
34142;SDS011;20419;10.658;106.724;2023-04-03T05:13:39;4.22;;;2.83;;
34142;SDS011;20419;10.658;106.724;2023-04-03T05:16:06;3.90;;;2.78;;
34142;SDS011;20419;10.658;106.724;2023-04-03T05:18:33;4.75;;;2.60;;
34142;SDS011;20419;10.658;106.724;2023-04-03T05:21:00;4.00;;;2.70;;
34142;SDS011;20419;10.658;106.724;2023-04-03T05:23:27;5.20;;;2.60;;
34142;SDS011;20419;10.658;106.724;2023-04-03T05:25:53;4.60;;;2.92;;
34142;SDS011;20419;10.658;106.724;2023-04-03T05:28:20;4.63;;;3.30;;
34142;SDS011;20419;10.658;106.724;2023-04-03T05:30:52;3.90;;;2.67;;
34142;SDS011;20419;10.658;106.724;2023-04-03T05:33:20;4.55;;;2.90;;
34142;SDS011;20419;10.658;106.724;2023-04-03T05:35:47;3.70;;;2.83;;
34142;SDS011;20419;10.658;106.724;2023-04-03T05:38:13;3.60;;;2.70;;
34142;SDS011;20419;10.658;106.724;2023-04-03T05:40:40;4.53;;;3.08;;
34142;SDS011;20419;10.658;106.724;2023-04-03T05:43:07;3.70;;;2.75;;
34142;SDS011;20419;10.658;106.724;2023-04-03T05:45:34;4.28;;;2.88;;
34142;SDS011;20419;10.658;106.724;2023-04-03T05:48:01;4.75;;;3.30;;
34142;SDS011;20419;10.658;106.724;2023-04-03T05:50:27;3.83;;;2.60;;
34142;SDS011;20419;10.658;106.724;2023-04-03T05:52:56;4.75;;;3.00;;
34142;SDS011;20419;10.658;106.724;2023-04-03T05:57:50;4.07;;;2.90;;
34142;SDS011;20419;10.658;106.724;2023-04-03T06:00:17;3.88;;;2.85;;
34142;SDS011;20419;10.658;106.724;2023-04-03T06:02:44;5.25;;;3.08;;
34142;SDS011;20419;10.658;106.724;2023-04-03T06:05:10;4.07;;;2.97;;
34142;SDS011;20419;10.658;106.724;2023-04-03T06:07:38;3.67;;;2.42;;
34142;SDS011;20419;10.658;106.724;2023-04-03T06:10:06;4.05;;;2.72;;
34142;SDS011;20419;10.658;106.724;2023-04-03T06:12:34;4.10;;;2.80;;
34142;SDS011;20419;10.658;106.724;2023-04-03T06:15:01;3.83;;;2.72;;
34142;SDS011;20419;10.658;106.724;2023-04-03T06:17:27;3.72;;;2.58;;
34142;SDS011;20419;10.658;106.724;2023-04-03T06:19:55;3.47;;;2.78;;
34142;SDS011;20419;10.658;106.724;2023-04-03T06:22:23;3.88;;;2.60;;
34142;SDS011;20419;10.658;106.724;2023-04-03T06:24:51;4.18;;;3.03;;
34142;SDS011;20419;10.658;106.724;2023-04-03T06:27:17;3.85;;;2.70;;
34142;SDS011;20419;10.658;106.724;2023-04-03T06:29:44;3.80;;;2.60;;
34142;SDS011;20419;10.658;106.724;2023-04-03T06:32:11;3.60;;;2.63;;
34142;SDS011;20419;10.658;106.724;2023-04-03T06:34:38;4.47;;;2.75;;
34142;SDS011;20419;10.658;106.724;2023-04-03T06:37:04;3.80;;;2.55;;
34142;SDS011;20419;10.658;106.724;2023-04-03T06:39:32;4.30;;;3.08;;
34142;SDS011;20419;10.658;106.724;2023-04-03T06:41:58;3.78;;;2.53;;
34142;SDS011;20419;10.658;106.724;2023-04-03T06:44:25;4.40;;;2.70;;
34142;SDS011;20419;10.658;106.724;2023-04-03T06:46:52;3.95;;;3.10;;
34142;SDS011;20419;10.658;106.724;2023-04-03T06:49:19;4.22;;;2.67;;
34142;SDS011;20419;10.658;106.724;2023-04-03T06:51:46;4.50;;;3.40;;
34142;SDS011;20419;10.658;106.724;2023-04-03T06:54:13;3.90;;;2.78;;
34142;SDS011;20419;10.658;106.724;2023-04-03T06:56:40;4.70;;;2.70;;
34142;SDS011;20419;10.658;106.724;2023-04-03T06:59:07;4.15;;;3.00;;
34142;SDS011;20419;10.658;106.724;2023-04-03T07:01:33;3.92;;;2.83;;
34142;SDS011;20419;10.658;106.724;2023-04-03T07:04:00;4.25;;;2.97;;
34142;SDS011;20419;10.658;106.724;2023-04-03T07:06:27;3.97;;;2.65;;
34142;SDS011;20419;10.658;106.724;2023-04-03T07:08:54;4.13;;;3.05;;
34142;SDS011;20419;10.658;106.724;2023-04-03T07:11:21;4.22;;;2.85;;
34142;SDS011;20419;10.658;106.724;2023-04-03T07:13:48;5.57;;;3.25;;
34142;SDS011;20419;10.658;106.724;2023-04-03T07:16:14;4.38;;;2.90;;
34142;SDS011;20419;10.658;106.724;2023-04-03T07:18:41;4.65;;;3.28;;
34142;SDS011;20419;10.658;106.724;2023-04-03T07:21:08;3.70;;;2.65;;
34142;SDS011;20419;10.658;106.724;2023-04-03T07:23:38;4.07;;;3.10;;
34142;SDS011;20419;10.658;106.724;2023-04-03T07:26:05;4.78;;;2.72;;
34142;SDS011;20419;10.658;106.724;2023-04-03T07:28:33;3.97;;;2.88;;
34142;SDS011;20419;10.658;106.724;2023-04-03T07:31:01;4.97;;;3.35;;
34142;SDS011;20419;10.658;106.724;2023-04-03T07:35:55;4.07;;;3.25;;
34142;SDS011;20419;10.658;106.724;2023-04-03T07:38:21;4.95;;;3.00;;
34142;SDS011;20419;10.658;106.724;2023-04-03T07:40:48;4.00;;;2.80;;
34142;SDS011;20419;10.658;106.724;2023-04-03T07:43:16;4.50;;;2.78;;
34142;SDS011;20419;10.658;106.724;2023-04-03T07:45:43;3.75;;;2.78;;
34142;SDS011;20419;10.658;106.724;2023-04-03T07:48:11;3.42;;;2.90;;
34142;SDS011;20419;10.658;106.724;2023-04-03T07:50:39;4.55;;;2.75;;
34142;SDS011;20419;10.658;106.724;2023-04-03T07:53:06;4.78;;;3.40;;
34142;SDS011;20419;10.658;106.724;2023-04-03T07:55:33;4.95;;;2.85;;
34142;SDS011;20419;10.658;106.724;2023-04-03T07:58:02;4.25;;;3.28;;
34142;SDS011;20419;10.658;106.724;2023-04-03T08:00:31;4.40;;;3.08;;
34142;SDS011;20419;10.658;106.724;2023-04-03T08:02:58;4.80;;;3.20;;
34142;SDS011;20419;10.658;106.724;2023-04-03T08:05:24;3.78;;;2.85;;
34142;SDS011;20419;10.658;106.724;2023-04-03T08:07:51;3.78;;;2.72;;
34142;SDS011;20419;10.658;106.724;2023-04-03T08:10:18;3.70;;;2.75;;
34142;SDS011;20419;10.658;106.724;2023-04-03T08:12:46;3.80;;;2.85;;
34142;SDS011;20419;10.658;106.724;2023-04-03T08:15:12;4.75;;;2.83;;
34142;SDS011;20419;10.658;106.724;2023-04-03T08:17:39;3.70;;;2.78;;
34142;SDS011;20419;10.658;106.724;2023-04-03T08:20:07;4.15;;;3.17;;
34142;SDS011;20419;10.658;106.724;2023-04-03T08:22:34;4.30;;;3.25;;
34142;SDS011;20419;10.658;106.724;2023-04-03T08:25:01;4.63;;;2.90;;
34142;SDS011;20419;10.658;106.724;2023-04-03T08:27:28;4.15;;;2.67;;
34142;SDS011;20419;10.658;106.724;2023-04-03T08:29:55;3.75;;;2.92;;
34142;SDS011;20419;10.658;106.724;2023-04-03T08:32:22;4.60;;;2.88;;
34142;SDS011;20419;10.658;106.724;2023-04-03T08:34:49;4.28;;;2.97;;
34142;SDS011;20419;10.658;106.724;2023-04-03T08:37:16;4.55;;;3.20;;
34142;SDS011;20419;10.658;106.724;2023-04-03T08:39:43;5.68;;;3.10;;
34142;SDS011;20419;10.658;106.724;2023-04-03T08:42:15;4.63;;;3.08;;
34142;SDS011;20419;10.658;106.724;2023-04-03T08:44:53;3.50;;;2.70;;
34142;SDS011;20419;10.658;106.724;2023-04-03T08:47:34;3.75;;;2.88;;
34142;SDS011;20419;10.658;106.724;2023-04-03T08:50:05;4.30;;;2.95;;
34142;SDS011;20419;10.658;106.724;2023-04-03T08:55:07;4.40;;;2.95;;
34142;SDS011;20419;10.658;106.724;2023-04-03T08:57:34;4.38;;;3.10;;
34142;SDS011;20419;10.658;106.724;2023-04-03T09:00:04;4.88;;;3.03;;
34142;SDS011;20419;10.658;106.724;2023-04-03T09:02:43;3.85;;;2.80;;
34142;SDS011;20419;10.658;106.724;2023-04-03T09:05:13;3.78;;;2.92;;
34142;SDS011;20419;10.658;106.724;2023-04-03T09:07:44;4.05;;;2.67;;
34142;SDS011;20419;10.658;106.724;2023-04-03T09:10:14;5.18;;;3.22;;
34142;SDS011;20419;10.658;106.724;2023-04-03T09:12:42;4.88;;;3.45;;
34142;SDS011;20419;10.658;106.724;2023-04-03T09:15:15;5.85;;;3.03;;
34142;SDS011;20419;10.658;106.724;2023-04-03T09:20:22;4.18;;;3.20;;
34142;SDS011;20419;10.658;106.724;2023-04-03T09:22:51;4.82;;;3.22;;
34142;SDS011;20419;10.658;106.724;2023-04-03T09:27:51;4.43;;;3.20;;
34142;SDS011;20419;10.658;106.724;2023-04-03T09:30:22;4.47;;;2.80;;
34142;SDS011;20419;10.658;106.724;2023-04-03T09:32:50;4.40;;;3.10;;
34142;SDS011;20419;10.658;106.724;2023-04-03T09:37:52;4.78;;;3.10;;
34142;SDS011;20419;10.658;106.724;2023-04-03T09:40:27;3.40;;;2.65;;
34142;SDS011;20419;10.658;106.724;2023-04-03T09:42:56;3.90;;;2.88;;
34142;SDS011;20419;10.658;106.724;2023-04-03T09:45:28;4.00;;;2.97;;
34142;SDS011;20419;10.658;106.724;2023-04-03T09:48:05;3.45;;;2.80;;
34142;SDS011;20419;10.658;106.724;2023-04-03T09:50:34;4.13;;;3.00;;
34142;SDS011;20419;10.658;106.724;2023-04-03T09:53:12;4.05;;;2.85;;
34142;SDS011;20419;10.658;106.724;2023-04-03T09:55:51;4.93;;;3.05;;
34142;SDS011;20419;10.658;106.724;2023-04-03T09:58:25;5.18;;;3.33;;
34142;SDS011;20419;10.658;106.724;2023-04-03T10:00:56;4.30;;;3.00;;
34142;SDS011;20419;10.658;106.724;2023-04-03T10:03:25;4.72;;;3.05;;
34142;SDS011;20419;10.658;106.724;2023-04-03T10:08:22;4.90;;;3.03;;
34142;SDS011;20419;10.658;106.724;2023-04-03T10:11:05;4.72;;;3.00;;
34142;SDS011;20419;10.658;106.724;2023-04-03T10:13:33;4.65;;;3.08;;
34142;SDS011;20419;10.658;106.724;2023-04-03T10:16:06;3.90;;;2.88;;
34142;SDS011;20419;10.658;106.724;2023-04-03T10:18:39;4.07;;;3.10;;
34142;SDS011;20419;10.658;106.724;2023-04-03T10:24:23;5.03;;;2.83;;
34142;SDS011;20419;10.658;106.724;2023-04-03T10:29:36;3.90;;;3.03;;
34142;SDS011;20419;10.658;106.724;2023-04-03T10:32:21;6.45;;;2.97;;
34142;SDS011;20419;10.658;106.724;2023-04-03T10:34:53;4.80;;;3.25;;
34142;SDS011;20419;10.658;106.724;2023-04-03T10:37:27;4.63;;;3.30;;
34142;SDS011;20419;10.658;106.724;2023-04-03T10:40:04;4.20;;;3.05;;
34142;SDS011;20419;10.658;106.724;2023-04-03T10:45:15;21.08;;;13.10;;
34142;SDS011;20419;10.658;106.724;2023-04-03T10:47:52;27.50;;;15.68;;
34142;SDS011;20419;10.658;106.724;2023-04-03T10:53:01;39.20;;;22.20;;
34142;SDS011;20419;10.658;106.724;2023-04-03T10:55:31;40.85;;;25.17;;
34142;SDS011;20419;10.658;106.724;2023-04-03T10:58:01;43.83;;;27.42;;
34142;SDS011;20419;10.658;106.724;2023-04-03T11:00:45;43.40;;;26.13;;
34142;SDS011;20419;10.658;106.724;2023-04-03T11:03:14;48.05;;;29.13;;
34142;SDS011;20419;10.658;106.724;2023-04-03T11:08:14;50.25;;;30.10;;
34142;SDS011;20419;10.658;106.724;2023-04-03T11:10:42;53.35;;;33.05;;
34142;SDS011;20419;10.658;106.724;2023-04-03T11:15:37;51.00;;;31.25;;
34142;SDS011;20419;10.658;106.724;2023-04-03T11:18:13;49.85;;;30.15;;
34142;SDS011;20419;10.658;106.724;2023-04-03T11:20:43;51.35;;;30.90;;
34142;SDS011;20419;10.658;106.724;2023-04-03T11:23:26;51.70;;;30.65;;
34142;SDS011;20419;10.658;106.724;2023-04-03T11:25:59;49.97;;;29.67;;
34142;SDS011;20419;10.658;106.724;2023-04-03T11:28:28;49.65;;;29.30;;
34142;SDS011;20419;10.658;106.724;2023-04-03T11:31:11;47.65;;;29.60;;
34142;SDS011;20419;10.658;106.724;2023-04-03T11:34:05;45.67;;;29.13;;
34142;SDS011;20419;10.658;106.724;2023-04-03T11:36:44;46.67;;;27.65;;
34142;SDS011;20419;10.658;106.724;2023-04-03T11:39:20;48.70;;;30.02;;
34142;SDS011;20419;10.658;106.724;2023-04-03T11:41:48;45.03;;;27.63;;
34142;SDS011;20419;10.658;106.724;2023-04-03T11:44:34;45.90;;;28.13;;
34142;SDS011;20419;10.658;106.724;2023-04-03T11:47:03;44.67;;;26.75;;
34142;SDS011;20419;10.658;106.724;2023-04-03T12:05:51;36.03;;;23.25;;
34142;SDS011;20419;10.658;106.724;2023-04-03T12:11:13;36.40;;;23.70;;
34142;SDS011;20419;10.658;106.724;2023-04-03T12:13:43;34.58;;;22.20;;
34142;SDS011;20419;10.658;106.724;2023-04-03T12:19:01;35.33;;;22.55;;
34142;SDS011;20419;10.658;106.724;2023-04-03T12:24:16;35.38;;;23.15;;
34142;SDS011;20419;10.658;106.724;2023-04-03T12:32:14;29.67;;;19.70;;
34142;SDS011;20419;10.658;106.724;2023-04-03T12:37:22;29.70;;;19.52;;
34142;SDS011;20419;10.658;106.724;2023-04-03T12:44:55;31.58;;;19.60;;
34142;SDS011;20419;10.658;106.724;2023-04-03T12:47:25;30.45;;;18.73;;
34142;SDS011;20419;10.658;106.724;2023-04-03T12:49:53;25.55;;;17.20;;
34142;SDS011;20419;10.658;106.724;2023-04-03T12:54:48;25.23;;;17.73;;
34142;SDS011;20419;10.658;106.724;2023-04-03T12:57:34;27.80;;;17.15;;
34142;SDS011;20419;10.658;106.724;2023-04-03T13:00:18;27.15;;;16.83;;
34142;SDS011;20419;10.658;106.724;2023-04-03T13:02:45;24.58;;;15.93;;
34142;SDS011;20419;10.658;106.724;2023-04-03T13:05:15;24.55;;;16.40;;
34142;SDS011;20419;10.658;106.724;2023-04-03T13:07:42;27.50;;;16.10;;
34142;SDS011;20419;10.658;106.724;2023-04-03T13:12:50;25.52;;;16.23;;
34142;SDS011;20419;10.658;106.724;2023-04-03T13:15:18;23.48;;;16.58;;
34142;SDS011;20419;10.658;106.724;2023-04-03T13:17:45;22.15;;;15.35;;
34142;SDS011;20419;10.658;106.724;2023-04-03T13:20:25;25.52;;;16.35;;
34142;SDS011;20419;10.658;106.724;2023-04-03T13:22:56;22.05;;;15.60;;
34142;SDS011;20419;10.658;106.724;2023-04-03T13:25:24;24.77;;;17.08;;
34142;SDS011;20419;10.658;106.724;2023-04-03T13:27:52;22.63;;;15.47;;
34142;SDS011;20419;10.658;106.724;2023-04-03T13:30:24;23.15;;;15.77;;
34142;SDS011;20419;10.658;106.724;2023-04-03T13:32:51;20.02;;;14.02;;
34142;SDS011;20419;10.658;106.724;2023-04-03T13:35:25;21.33;;;14.93;;
34142;SDS011;20419;10.658;106.724;2023-04-03T13:38:00;20.42;;;14.07;;
34142;SDS011;20419;10.658;106.724;2023-04-03T13:40:27;21.05;;;13.40;;
34142;SDS011;20419;10.658;106.724;2023-04-03T13:43:14;21.52;;;14.45;;
34142;SDS011;20419;10.658;106.724;2023-04-03T13:48:37;17.48;;;13.27;;
34142;SDS011;20419;10.658;106.724;2023-04-03T13:53:32;17.60;;;11.85;;
34142;SDS011;20419;10.658;106.724;2023-04-03T13:56:07;20.35;;;12.70;;
34142;SDS011;20419;10.658;106.724;2023-04-03T13:58:34;17.75;;;12.35;;
34142;SDS011;20419;10.658;106.724;2023-04-03T14:03:33;19.00;;;12.15;;
34142;SDS011;20419;10.658;106.724;2023-04-03T14:06:06;16.70;;;11.10;;
34142;SDS011;20419;10.658;106.724;2023-04-03T14:08:35;17.48;;;11.48;;
34142;SDS011;20419;10.658;106.724;2023-04-03T14:11:02;15.07;;;11.52;;
34142;SDS011;20419;10.658;106.724;2023-04-03T14:13:29;16.15;;;11.65;;
34142;SDS011;20419;10.658;106.724;2023-04-03T14:15:56;15.38;;;10.90;;
34142;SDS011;20419;10.658;106.724;2023-04-03T14:18:23;18.38;;;12.07;;
34142;SDS011;20419;10.658;106.724;2023-04-03T14:20:50;18.15;;;11.15;;
34142;SDS011;20419;10.658;106.724;2023-04-03T14:23:17;14.20;;;9.77;;
34142;SDS011;20419;10.658;106.724;2023-04-03T14:25:44;16.95;;;11.35;;
34142;SDS011;20419;10.658;106.724;2023-04-03T14:28:16;15.82;;;11.38;;
34142;SDS011;20419;10.658;106.724;2023-04-03T14:30:44;16.05;;;9.93;;
34142;SDS011;20419;10.658;106.724;2023-04-03T14:33:14;15.68;;;10.88;;
34142;SDS011;20419;10.658;106.724;2023-04-03T14:35:41;13.48;;;10.10;;
34142;SDS011;20419;10.658;106.724;2023-04-03T14:38:22;15.65;;;10.30;;
34142;SDS011;20419;10.658;106.724;2023-04-03T14:40:49;13.73;;;9.25;;
34142;SDS011;20419;10.658;106.724;2023-04-03T14:43:16;15.88;;;10.38;;
34142;SDS011;20419;10.658;106.724;2023-04-03T14:45:43;13.43;;;9.88;;
34142;SDS011;20419;10.658;106.724;2023-04-03T14:48:15;14.93;;;9.73;;
34142;SDS011;20419;10.658;106.724;2023-04-03T14:50:43;13.02;;;9.10;;
34142;SDS011;20419;10.658;106.724;2023-04-03T14:53:09;15.60;;;10.02;;
34142;SDS011;20419;10.658;106.724;2023-04-03T14:55:41;12.07;;;8.73;;
34142;SDS011;20419;10.658;106.724;2023-04-03T14:58:11;13.23;;;9.68;;
34142;SDS011;20419;10.658;106.724;2023-04-03T15:00:38;13.95;;;9.68;;
34142;SDS011;20419;10.658;106.724;2023-04-03T15:03:05;13.23;;;9.63;;
34142;SDS011;20419;10.658;106.724;2023-04-03T15:05:32;12.57;;;8.90;;
34142;SDS011;20419;10.658;106.724;2023-04-03T15:07:58;11.68;;;8.65;;
34142;SDS011;20419;10.658;106.724;2023-04-03T15:10:27;13.45;;;9.48;;
34142;SDS011;20419;10.658;106.724;2023-04-03T15:12:54;12.93;;;9.07;;
34142;SDS011;20419;10.658;106.724;2023-04-03T15:15:21;12.85;;;8.65;;
34142;SDS011;20419;10.658;106.724;2023-04-03T15:17:52;12.35;;;8.13;;
34142;SDS011;20419;10.658;106.724;2023-04-03T15:20:20;11.18;;;8.50;;
34142;SDS011;20419;10.658;106.724;2023-04-03T15:22:48;11.53;;;8.17;;
34142;SDS011;20419;10.658;106.724;2023-04-03T15:25:15;10.48;;;7.55;;
34142;SDS011;20419;10.658;106.724;2023-04-03T15:27:43;10.70;;;7.77;;
34142;SDS011;20419;10.658;106.724;2023-04-03T15:30:15;11.63;;;8.00;;
34142;SDS011;20419;10.658;106.724;2023-04-03T15:32:42;11.25;;;7.63;;
34142;SDS011;20419;10.658;106.724;2023-04-03T15:35:08;10.93;;;8.00;;
34142;SDS011;20419;10.658;106.724;2023-04-03T15:37:35;10.00;;;6.95;;
34142;SDS011;20419;10.658;106.724;2023-04-03T15:40:03;10.65;;;7.22;;
34142;SDS011;20419;10.658;106.724;2023-04-03T15:42:30;11.30;;;7.60;;
34142;SDS011;20419;10.658;106.724;2023-04-03T15:44:57;10.57;;;7.40;;
34142;SDS011;20419;10.658;106.724;2023-04-03T15:47:24;16.35;;;8.02;;
34142;SDS011;20419;10.658;106.724;2023-04-03T15:49:51;11.57;;;7.68;;
34142;SDS011;20419;10.658;106.724;2023-04-03T15:52:19;11.05;;;7.90;;
34142;SDS011;20419;10.658;106.724;2023-04-03T15:54:46;10.27;;;7.47;;
34142;SDS011;20419;10.658;106.724;2023-04-03T15:57:12;9.65;;;7.35;;
34142;SDS011;20419;10.658;106.724;2023-04-03T15:59:39;10.23;;;7.00;;